sensor_id;sensor_type;location;lat;lon;timestamp;P1;durP1;ratioP1;P2;durP2;ratioP2
64686;SDS011;51113;53.646;-113.674;2023-08-24T00:01:58;6.07;;;3.42;;
64686;SDS011;51113;53.646;-113.674;2023-08-24T00:04:29;6.93;;;3.72;;
64686;SDS011;51113;53.646;-113.674;2023-08-24T00:06:58;10.70;;;4.10;;
64686;SDS011;51113;53.646;-113.674;2023-08-24T00:09:26;7.40;;;3.53;;
64686;SDS011;51113;53.646;-113.674;2023-08-24T00:11:55;9.68;;;2.78;;
64686;SDS011;51113;53.646;-113.674;2023-08-24T00:14:24;5.38;;;2.58;;
64686;SDS011;51113;53.646;-113.674;2023-08-24T00:16:52;7.20;;;2.78;;
64686;SDS011;51113;53.646;-113.674;2023-08-24T00:19:21;8.45;;;2.55;;
64686;SDS011;51113;53.646;-113.674;2023-08-24T00:21:49;4.07;;;2.25;;
64686;SDS011;51113;53.646;-113.674;2023-08-24T00:24:18;4.75;;;2.45;;
64686;SDS011;51113;53.646;-113.674;2023-08-24T00:26:47;4.45;;;2.47;;
64686;SDS011;51113;53.646;-113.674;2023-08-24T00:29:15;7.13;;;2.80;;
64686;SDS011;51113;53.646;-113.674;2023-08-24T00:31:44;7.25;;;2.38;;
64686;SDS011;51113;53.646;-113.674;2023-08-24T00:34:12;4.47;;;2.50;;
64686;SDS011;51113;53.646;-113.674;2023-08-24T00:36:41;8.85;;;2.53;;
64686;SDS011;51113;53.646;-113.674;2023-08-24T00:39:10;7.40;;;2.83;;
64686;SDS011;51113;53.646;-113.674;2023-08-24T00:41:39;4.35;;;2.78;;
64686;SDS011;51113;53.646;-113.674;2023-08-24T00:44:10;6.82;;;2.60;;
64686;SDS011;51113;53.646;-113.674;2023-08-24T00:46:39;7.25;;;3.42;;
64686;SDS011;51113;53.646;-113.674;2023-08-24T00:49:09;4.38;;;2.58;;
64686;SDS011;51113;53.646;-113.674;2023-08-24T00:51:38;5.68;;;2.60;;
64686;SDS011;51113;53.646;-113.674;2023-08-24T00:54:07;6.32;;;3.15;;
64686;SDS011;51113;53.646;-113.674;2023-08-24T00:56:36;4.80;;;2.78;;
64686;SDS011;51113;53.646;-113.674;2023-08-24T00:59:05;6.00;;;3.22;;
64686;SDS011;51113;53.646;-113.674;2023-08-24T01:01:34;5.75;;;2.85;;
64686;SDS011;51113;53.646;-113.674;2023-08-24T01:04:02;5.30;;;2.65;;
64686;SDS011;51113;53.646;-113.674;2023-08-24T01:06:32;7.38;;;2.28;;
64686;SDS011;51113;53.646;-113.674;2023-08-24T01:09:00;4.03;;;2.65;;
64686;SDS011;51113;53.646;-113.674;2023-08-24T01:14:08;5.43;;;2.00;;
64686;SDS011;51113;53.646;-113.674;2023-08-24T01:16:40;3.38;;;1.90;;
64686;SDS011;51113;53.646;-113.674;2023-08-24T01:19:22;3.75;;;1.80;;
64686;SDS011;51113;53.646;-113.674;2023-08-24T01:22:02;3.78;;;1.95;;
64686;SDS011;51113;53.646;-113.674;2023-08-24T01:24:38;4.30;;;1.95;;
64686;SDS011;51113;53.646;-113.674;2023-08-24T01:27:13;7.38;;;2.80;;
64686;SDS011;51113;53.646;-113.674;2023-08-24T01:29:43;2.92;;;1.83;;
64686;SDS011;51113;53.646;-113.674;2023-08-24T01:32:11;3.25;;;1.90;;
64686;SDS011;51113;53.646;-113.674;2023-08-24T01:34:40;4.07;;;1.80;;
64686;SDS011;51113;53.646;-113.674;2023-08-24T01:37:08;3.35;;;1.75;;
64686;SDS011;51113;53.646;-113.674;2023-08-24T01:42:19;3.10;;;1.55;;
64686;SDS011;51113;53.646;-113.674;2023-08-24T01:44:50;3.42;;;1.77;;
64686;SDS011;51113;53.646;-113.674;2023-08-24T01:47:22;2.63;;;1.65;;
64686;SDS011;51113;53.646;-113.674;2023-08-24T01:49:53;3.08;;;1.50;;
64686;SDS011;51113;53.646;-113.674;2023-08-24T01:52:22;3.55;;;1.80;;
64686;SDS011;51113;53.646;-113.674;2023-08-24T01:54:52;4.13;;;1.60;;
64686;SDS011;51113;53.646;-113.674;2023-08-24T01:57:20;2.50;;;1.48;;
64686;SDS011;51113;53.646;-113.674;2023-08-24T01:59:49;3.33;;;2.00;;
64686;SDS011;51113;53.646;-113.674;2023-08-24T02:02:18;3.17;;;1.73;;
64686;SDS011;51113;53.646;-113.674;2023-08-24T02:04:46;3.05;;;1.80;;
64686;SDS011;51113;53.646;-113.674;2023-08-24T02:07:15;2.95;;;1.60;;
64686;SDS011;51113;53.646;-113.674;2023-08-24T02:09:44;3.10;;;1.65;;
64686;SDS011;51113;53.646;-113.674;2023-08-24T02:12:13;2.08;;;1.45;;
64686;SDS011;51113;53.646;-113.674;2023-08-24T02:14:41;5.32;;;1.80;;
64686;SDS011;51113;53.646;-113.674;2023-08-24T02:17:10;3.10;;;1.90;;
64686;SDS011;51113;53.646;-113.674;2023-08-24T02:19:39;3.50;;;1.92;;
64686;SDS011;51113;53.646;-113.674;2023-08-24T02:22:11;3.50;;;1.70;;
64686;SDS011;51113;53.646;-113.674;2023-08-24T02:24:39;2.80;;;1.65;;
64686;SDS011;51113;53.646;-113.674;2023-08-24T02:27:08;8.10;;;1.60;;
64686;SDS011;51113;53.646;-113.674;2023-08-24T02:29:36;3.70;;;2.00;;
64686;SDS011;51113;53.646;-113.674;2023-08-24T02:32:05;3.50;;;1.92;;
64686;SDS011;51113;53.646;-113.674;2023-08-24T02:34:34;7.72;;;1.60;;
64686;SDS011;51113;53.646;-113.674;2023-08-24T02:37:03;4.78;;;1.50;;
64686;SDS011;51113;53.646;-113.674;2023-08-24T02:39:31;6.15;;;1.48;;
64686;SDS011;51113;53.646;-113.674;2023-08-24T02:42:00;2.78;;;1.52;;
64686;SDS011;51113;53.646;-113.674;2023-08-24T02:44:28;3.30;;;1.48;;
64686;SDS011;51113;53.646;-113.674;2023-08-24T02:46:57;3.92;;;2.20;;
64686;SDS011;51113;53.646;-113.674;2023-08-24T02:49:26;3.17;;;2.33;;
64686;SDS011;51113;53.646;-113.674;2023-08-24T02:51:54;3.97;;;1.77;;
64686;SDS011;51113;53.646;-113.674;2023-08-24T02:54:22;3.70;;;1.63;;
64686;SDS011;51113;53.646;-113.674;2023-08-24T02:56:51;2.65;;;1.75;;
64686;SDS011;51113;53.646;-113.674;2023-08-24T02:59:21;3.80;;;1.80;;
64686;SDS011;51113;53.646;-113.674;2023-08-24T03:01:50;6.60;;;2.00;;
64686;SDS011;51113;53.646;-113.674;2023-08-24T03:04:18;5.53;;;1.65;;
64686;SDS011;51113;53.646;-113.674;2023-08-24T03:06:47;2.35;;;1.63;;
64686;SDS011;51113;53.646;-113.674;2023-08-24T03:09:15;2.88;;;1.70;;
64686;SDS011;51113;53.646;-113.674;2023-08-24T03:11:45;3.97;;;1.95;;
64686;SDS011;51113;53.646;-113.674;2023-08-24T03:14:13;3.25;;;1.77;;
64686;SDS011;51113;53.646;-113.674;2023-08-24T03:16:42;5.32;;;2.55;;
64686;SDS011;51113;53.646;-113.674;2023-08-24T03:19:10;2.50;;;1.63;;
64686;SDS011;51113;53.646;-113.674;2023-08-24T03:21:40;4.15;;;1.60;;
64686;SDS011;51113;53.646;-113.674;2023-08-24T03:24:08;3.08;;;1.70;;
64686;SDS011;51113;53.646;-113.674;2023-08-24T03:26:37;2.17;;;1.52;;
64686;SDS011;51113;53.646;-113.674;2023-08-24T03:29:05;2.67;;;1.60;;
64686;SDS011;51113;53.646;-113.674;2023-08-24T03:31:34;3.15;;;1.85;;
64686;SDS011;51113;53.646;-113.674;2023-08-24T03:34:03;2.78;;;1.35;;
64686;SDS011;51113;53.646;-113.674;2023-08-24T03:36:31;5.72;;;1.73;;
64686;SDS011;51113;53.646;-113.674;2023-08-24T03:39:00;6.38;;;1.80;;
64686;SDS011;51113;53.646;-113.674;2023-08-24T03:41:29;4.28;;;1.88;;
64686;SDS011;51113;53.646;-113.674;2023-08-24T03:43:58;3.97;;;1.75;;
64686;SDS011;51113;53.646;-113.674;2023-08-24T03:46:26;2.10;;;1.50;;
64686;SDS011;51113;53.646;-113.674;2023-08-24T03:48:55;3.28;;;1.83;;
64686;SDS011;51113;53.646;-113.674;2023-08-24T03:51:23;4.03;;;2.05;;
64686;SDS011;51113;53.646;-113.674;2023-08-24T03:53:52;2.80;;;1.75;;
64686;SDS011;51113;53.646;-113.674;2023-08-24T03:56:21;2.30;;;1.48;;
64686;SDS011;51113;53.646;-113.674;2023-08-24T03:58:49;3.65;;;1.50;;
64686;SDS011;51113;53.646;-113.674;2023-08-24T04:01:18;2.88;;;1.83;;
64686;SDS011;51113;53.646;-113.674;2023-08-24T04:03:46;2.97;;;1.52;;
64686;SDS011;51113;53.646;-113.674;2023-08-24T04:06:17;3.05;;;1.75;;
64686;SDS011;51113;53.646;-113.674;2023-08-24T04:08:47;3.70;;;2.00;;
64686;SDS011;51113;53.646;-113.674;2023-08-24T04:11:16;5.78;;;1.85;;
64686;SDS011;51113;53.646;-113.674;2023-08-24T04:13:45;2.95;;;1.70;;
64686;SDS011;51113;53.646;-113.674;2023-08-24T04:16:14;5.55;;;2.05;;
64686;SDS011;51113;53.646;-113.674;2023-08-24T04:18:42;3.55;;;1.63;;
64686;SDS011;51113;53.646;-113.674;2023-08-24T04:21:11;4.90;;;2.00;;
64686;SDS011;51113;53.646;-113.674;2023-08-24T04:23:39;5.90;;;1.98;;
64686;SDS011;51113;53.646;-113.674;2023-08-24T04:26:12;5.97;;;2.15;;
64686;SDS011;51113;53.646;-113.674;2023-08-24T04:28:41;7.75;;;2.28;;
64686;SDS011;51113;53.646;-113.674;2023-08-24T04:31:10;7.65;;;2.00;;
64686;SDS011;51113;53.646;-113.674;2023-08-24T04:33:39;5.80;;;2.00;;
64686;SDS011;51113;53.646;-113.674;2023-08-24T04:36:08;6.05;;;2.22;;
64686;SDS011;51113;53.646;-113.674;2023-08-24T04:38:36;4.90;;;2.40;;
64686;SDS011;51113;53.646;-113.674;2023-08-24T04:41:08;6.25;;;2.45;;
64686;SDS011;51113;53.646;-113.674;2023-08-24T04:43:37;8.00;;;2.85;;
64686;SDS011;51113;53.646;-113.674;2023-08-24T04:46:06;11.38;;;3.03;;
64686;SDS011;51113;53.646;-113.674;2023-08-24T04:48:34;4.72;;;2.80;;
64686;SDS011;51113;53.646;-113.674;2023-08-24T04:51:03;6.28;;;3.28;;
64686;SDS011;51113;53.646;-113.674;2023-08-24T04:53:31;5.95;;;3.17;;
64686;SDS011;51113;53.646;-113.674;2023-08-24T04:56:00;10.27;;;3.83;;
64686;SDS011;51113;53.646;-113.674;2023-08-24T04:58:28;6.28;;;3.13;;
64686;SDS011;51113;53.646;-113.674;2023-08-24T05:00:56;9.60;;;3.83;;
64686;SDS011;51113;53.646;-113.674;2023-08-24T05:03:25;10.95;;;4.38;;
64686;SDS011;51113;53.646;-113.674;2023-08-24T05:05:54;13.85;;;4.45;;
64686;SDS011;51113;53.646;-113.674;2023-08-24T05:08:22;7.78;;;3.50;;
64686;SDS011;51113;53.646;-113.674;2023-08-24T05:10:51;12.10;;;3.80;;
64686;SDS011;51113;53.646;-113.674;2023-08-24T05:13:20;8.70;;;3.78;;
64686;SDS011;51113;53.646;-113.674;2023-08-24T05:15:50;9.50;;;4.28;;
64686;SDS011;51113;53.646;-113.674;2023-08-24T05:18:19;7.20;;;3.72;;
64686;SDS011;51113;53.646;-113.674;2023-08-24T05:20:47;6.28;;;4.05;;
64686;SDS011;51113;53.646;-113.674;2023-08-24T05:23:15;8.52;;;3.78;;
64686;SDS011;51113;53.646;-113.674;2023-08-24T05:25:44;11.05;;;3.85;;
64686;SDS011;51113;53.646;-113.674;2023-08-24T05:28:13;5.22;;;3.63;;
64686;SDS011;51113;53.646;-113.674;2023-08-24T05:30:41;8.75;;;4.45;;
64686;SDS011;51113;53.646;-113.674;2023-08-24T05:33:10;8.75;;;4.50;;
64686;SDS011;51113;53.646;-113.674;2023-08-24T05:35:38;6.50;;;3.90;;
64686;SDS011;51113;53.646;-113.674;2023-08-24T05:38:07;6.50;;;4.03;;
64686;SDS011;51113;53.646;-113.674;2023-08-24T05:40:36;8.13;;;3.78;;
64686;SDS011;51113;53.646;-113.674;2023-08-24T05:43:05;7.95;;;4.60;;
64686;SDS011;51113;53.646;-113.674;2023-08-24T05:45:33;6.45;;;4.03;;
64686;SDS011;51113;53.646;-113.674;2023-08-24T05:48:02;7.38;;;4.57;;
64686;SDS011;51113;53.646;-113.674;2023-08-24T05:50:31;9.48;;;5.00;;
64686;SDS011;51113;53.646;-113.674;2023-08-24T05:53:00;9.43;;;4.75;;
64686;SDS011;51113;53.646;-113.674;2023-08-24T05:55:28;11.60;;;4.60;;
64686;SDS011;51113;53.646;-113.674;2023-08-24T05:57:57;8.30;;;4.60;;
64686;SDS011;51113;53.646;-113.674;2023-08-24T06:00:25;14.27;;;5.05;;
64686;SDS011;51113;53.646;-113.674;2023-08-24T06:02:54;9.48;;;4.97;;
64686;SDS011;51113;53.646;-113.674;2023-08-24T06:05:23;10.15;;;5.25;;
64686;SDS011;51113;53.646;-113.674;2023-08-24T06:07:51;11.05;;;5.35;;
64686;SDS011;51113;53.646;-113.674;2023-08-24T06:10:20;9.70;;;5.13;;
64686;SDS011;51113;53.646;-113.674;2023-08-24T06:12:49;11.77;;;5.95;;
64686;SDS011;51113;53.646;-113.674;2023-08-24T06:15:18;13.85;;;5.15;;
64686;SDS011;51113;53.646;-113.674;2023-08-24T06:17:47;14.18;;;6.13;;
64686;SDS011;51113;53.646;-113.674;2023-08-24T06:20:16;11.88;;;5.13;;
64686;SDS011;51113;53.646;-113.674;2023-08-24T06:22:45;10.18;;;6.00;;
64686;SDS011;51113;53.646;-113.674;2023-08-24T06:25:14;15.57;;;6.50;;
64686;SDS011;51113;53.646;-113.674;2023-08-24T06:27:41;16.15;;;6.93;;
64686;SDS011;51113;53.646;-113.674;2023-08-24T06:30:10;10.90;;;6.22;;
64686;SDS011;51113;53.646;-113.674;2023-08-24T06:32:39;10.15;;;6.35;;
64686;SDS011;51113;53.646;-113.674;2023-08-24T06:35:08;10.55;;;6.30;;
64686;SDS011;51113;53.646;-113.674;2023-08-24T06:37:36;14.18;;;6.63;;
64686;SDS011;51113;53.646;-113.674;2023-08-24T06:40:05;12.77;;;6.63;;
64686;SDS011;51113;53.646;-113.674;2023-08-24T06:42:34;14.43;;;7.15;;
64686;SDS011;51113;53.646;-113.674;2023-08-24T06:45:03;13.85;;;6.50;;
64686;SDS011;51113;53.646;-113.674;2023-08-24T06:47:32;15.73;;;7.93;;
64686;SDS011;51113;53.646;-113.674;2023-08-24T06:50:00;16.35;;;7.10;;
64686;SDS011;51113;53.646;-113.674;2023-08-24T06:52:29;17.15;;;7.72;;
64686;SDS011;51113;53.646;-113.674;2023-08-24T06:54:58;13.95;;;6.60;;
64686;SDS011;51113;53.646;-113.674;2023-08-24T06:57:28;12.07;;;7.05;;
64686;SDS011;51113;53.646;-113.674;2023-08-24T06:59:57;11.52;;;6.68;;
64686;SDS011;51113;53.646;-113.674;2023-08-24T07:02:25;12.57;;;6.60;;
64686;SDS011;51113;53.646;-113.674;2023-08-24T07:04:54;19.70;;;7.45;;
64686;SDS011;51113;53.646;-113.674;2023-08-24T07:07:24;13.98;;;7.93;;
64686;SDS011;51113;53.646;-113.674;2023-08-24T07:09:53;13.07;;;7.70;;
64686;SDS011;51113;53.646;-113.674;2023-08-24T07:12:22;15.57;;;7.53;;
64686;SDS011;51113;53.646;-113.674;2023-08-24T07:14:51;15.82;;;6.60;;
64686;SDS011;51113;53.646;-113.674;2023-08-24T07:17:19;12.13;;;7.20;;
64686;SDS011;51113;53.646;-113.674;2023-08-24T07:19:48;13.60;;;7.38;;
64686;SDS011;51113;53.646;-113.674;2023-08-24T07:22:16;15.38;;;8.10;;
64686;SDS011;51113;53.646;-113.674;2023-08-24T07:24:45;13.77;;;7.97;;
64686;SDS011;51113;53.646;-113.674;2023-08-24T07:27:14;13.55;;;7.90;;
64686;SDS011;51113;53.646;-113.674;2023-08-24T07:29:42;15.85;;;8.68;;
64686;SDS011;51113;53.646;-113.674;2023-08-24T07:32:11;14.90;;;8.63;;
64686;SDS011;51113;53.646;-113.674;2023-08-24T07:34:39;14.70;;;9.13;;
64686;SDS011;51113;53.646;-113.674;2023-08-24T07:37:08;14.68;;;8.23;;
64686;SDS011;51113;53.646;-113.674;2023-08-24T07:39:37;14.07;;;8.68;;
64686;SDS011;51113;53.646;-113.674;2023-08-24T07:42:06;16.55;;;8.98;;
64686;SDS011;51113;53.646;-113.674;2023-08-24T07:44:35;18.60;;;8.60;;
64686;SDS011;51113;53.646;-113.674;2023-08-24T07:47:03;19.73;;;9.63;;
64686;SDS011;51113;53.646;-113.674;2023-08-24T07:49:32;14.00;;;8.70;;
64686;SDS011;51113;53.646;-113.674;2023-08-24T07:52:01;15.75;;;9.38;;
64686;SDS011;51113;53.646;-113.674;2023-08-24T07:54:29;18.02;;;10.32;;
64686;SDS011;51113;53.646;-113.674;2023-08-24T07:56:58;15.20;;;9.35;;
64686;SDS011;51113;53.646;-113.674;2023-08-24T07:59:27;25.23;;;9.98;;
64686;SDS011;51113;53.646;-113.674;2023-08-24T08:01:55;18.10;;;9.65;;
64686;SDS011;51113;53.646;-113.674;2023-08-24T08:04:24;19.02;;;9.73;;
64686;SDS011;51113;53.646;-113.674;2023-08-24T08:06:52;14.90;;;9.48;;
64686;SDS011;51113;53.646;-113.674;2023-08-24T08:09:21;20.23;;;9.82;;
64686;SDS011;51113;53.646;-113.674;2023-08-24T08:11:50;16.75;;;9.13;;
64686;SDS011;51113;53.646;-113.674;2023-08-24T08:14:19;22.13;;;10.25;;
64686;SDS011;51113;53.646;-113.674;2023-08-24T08:16:47;20.30;;;9.90;;
64686;SDS011;51113;53.646;-113.674;2023-08-24T08:19:16;18.10;;;9.75;;
64686;SDS011;51113;53.646;-113.674;2023-08-24T08:21:46;15.32;;;9.50;;
64686;SDS011;51113;53.646;-113.674;2023-08-24T08:24:15;18.20;;;10.45;;
64686;SDS011;51113;53.646;-113.674;2023-08-24T08:26:51;14.88;;;9.43;;
64686;SDS011;51113;53.646;-113.674;2023-08-24T08:29:20;16.58;;;9.27;;
64686;SDS011;51113;53.646;-113.674;2023-08-24T08:31:49;17.38;;;9.82;;
64686;SDS011;51113;53.646;-113.674;2023-08-24T08:34:17;19.98;;;9.70;;
64686;SDS011;51113;53.646;-113.674;2023-08-24T08:36:46;16.50;;;10.27;;
64686;SDS011;51113;53.646;-113.674;2023-08-24T08:39:14;18.02;;;10.65;;
64686;SDS011;51113;53.646;-113.674;2023-08-24T08:41:47;18.40;;;11.00;;
64686;SDS011;51113;53.646;-113.674;2023-08-24T08:44:16;18.15;;;9.52;;
64686;SDS011;51113;53.646;-113.674;2023-08-24T08:46:45;21.77;;;10.27;;
64686;SDS011;51113;53.646;-113.674;2023-08-24T08:49:15;19.52;;;11.27;;
64686;SDS011;51113;53.646;-113.674;2023-08-24T08:51:45;19.08;;;10.48;;
64686;SDS011;51113;53.646;-113.674;2023-08-24T08:54:14;15.43;;;10.23;;
64686;SDS011;51113;53.646;-113.674;2023-08-24T08:56:43;18.58;;;10.57;;
64686;SDS011;51113;53.646;-113.674;2023-08-24T08:59:12;18.83;;;11.18;;
64686;SDS011;51113;53.646;-113.674;2023-08-24T09:01:43;23.80;;;11.80;;
64686;SDS011;51113;53.646;-113.674;2023-08-24T09:04:15;21.98;;;11.65;;
64686;SDS011;51113;53.646;-113.674;2023-08-24T09:06:44;18.83;;;10.82;;
64686;SDS011;51113;53.646;-113.674;2023-08-24T09:09:13;18.05;;;11.77;;
64686;SDS011;51113;53.646;-113.674;2023-08-24T09:11:43;18.65;;;10.95;;
64686;SDS011;51113;53.646;-113.674;2023-08-24T09:14:16;20.70;;;11.70;;
64686;SDS011;51113;53.646;-113.674;2023-08-24T09:16:44;21.20;;;12.32;;
64686;SDS011;51113;53.646;-113.674;2023-08-24T09:19:13;18.33;;;11.75;;
64686;SDS011;51113;53.646;-113.674;2023-08-24T09:21:41;22.70;;;11.52;;
64686;SDS011;51113;53.646;-113.674;2023-08-24T09:24:10;20.45;;;12.00;;
64686;SDS011;51113;53.646;-113.674;2023-08-24T09:26:40;21.55;;;11.85;;
64686;SDS011;51113;53.646;-113.674;2023-08-24T09:29:13;20.92;;;12.48;;
64686;SDS011;51113;53.646;-113.674;2023-08-24T09:31:43;22.13;;;12.48;;
64686;SDS011;51113;53.646;-113.674;2023-08-24T09:34:12;20.40;;;12.70;;
64686;SDS011;51113;53.646;-113.674;2023-08-24T09:36:40;28.45;;;13.18;;
64686;SDS011;51113;53.646;-113.674;2023-08-24T09:39:11;26.17;;;13.93;;
64686;SDS011;51113;53.646;-113.674;2023-08-24T09:41:43;21.08;;;13.60;;
64686;SDS011;51113;53.646;-113.674;2023-08-24T09:44:12;24.83;;;13.85;;
64686;SDS011;51113;53.646;-113.674;2023-08-24T09:46:42;21.60;;;13.52;;
64686;SDS011;51113;53.646;-113.674;2023-08-24T09:49:14;25.38;;;14.02;;
64686;SDS011;51113;53.646;-113.674;2023-08-24T09:51:42;25.60;;;14.38;;
64686;SDS011;51113;53.646;-113.674;2023-08-24T09:54:12;24.25;;;13.68;;
64686;SDS011;51113;53.646;-113.674;2023-08-24T09:56:49;22.67;;;13.98;;
64686;SDS011;51113;53.646;-113.674;2023-08-24T09:59:18;26.83;;;13.90;;
64686;SDS011;51113;53.646;-113.674;2023-08-24T10:01:52;26.70;;;13.70;;
64686;SDS011;51113;53.646;-113.674;2023-08-24T10:04:25;23.77;;;14.10;;
64686;SDS011;51113;53.646;-113.674;2023-08-24T10:06:59;21.40;;;13.57;;
64686;SDS011;51113;53.646;-113.674;2023-08-24T10:12:13;26.55;;;13.85;;
64686;SDS011;51113;53.646;-113.674;2023-08-24T10:14:49;22.73;;;13.35;;
64686;SDS011;51113;53.646;-113.674;2023-08-24T10:17:34;26.08;;;13.60;;
64686;SDS011;51113;53.646;-113.674;2023-08-24T10:20:05;23.13;;;13.82;;
64686;SDS011;51113;53.646;-113.674;2023-08-24T10:22:37;25.87;;;13.83;;
64686;SDS011;51113;53.646;-113.674;2023-08-24T10:25:08;25.48;;;13.90;;
64686;SDS011;51113;53.646;-113.674;2023-08-24T10:27:37;20.08;;;13.05;;
64686;SDS011;51113;53.646;-113.674;2023-08-24T10:30:11;22.50;;;13.68;;
64686;SDS011;51113;53.646;-113.674;2023-08-24T10:32:41;21.85;;;13.07;;
64686;SDS011;51113;53.646;-113.674;2023-08-24T10:35:11;27.92;;;13.70;;
64686;SDS011;51113;53.646;-113.674;2023-08-24T10:37:46;25.52;;;12.93;;
64686;SDS011;51113;53.646;-113.674;2023-08-24T10:40:15;22.17;;;12.65;;
64686;SDS011;51113;53.646;-113.674;2023-08-24T10:43:03;18.65;;;12.13;;
64686;SDS011;51113;53.646;-113.674;2023-08-24T10:51:22;25.58;;;13.55;;
64686;SDS011;51113;53.646;-113.674;2023-08-24T10:53:58;26.92;;;13.00;;
64686;SDS011;51113;53.646;-113.674;2023-08-24T10:56:34;25.77;;;12.82;;
64686;SDS011;51113;53.646;-113.674;2023-08-24T10:59:09;25.50;;;12.85;;
64686;SDS011;51113;53.646;-113.674;2023-08-24T11:01:57;32.00;;;12.18;;
64686;SDS011;51113;53.646;-113.674;2023-08-24T11:04:26;20.20;;;12.50;;
64686;SDS011;51113;53.646;-113.674;2023-08-24T11:06:56;22.40;;;12.50;;
64686;SDS011;51113;53.646;-113.674;2023-08-24T11:09:44;19.75;;;12.10;;
64686;SDS011;51113;53.646;-113.674;2023-08-24T11:12:16;25.58;;;12.25;;
64686;SDS011;51113;53.646;-113.674;2023-08-24T11:14:51;22.13;;;13.00;;
64686;SDS011;51113;53.646;-113.674;2023-08-24T11:17:30;24.40;;;13.25;;
64686;SDS011;51113;53.646;-113.674;2023-08-24T11:20:02;25.17;;;12.55;;
64686;SDS011;51113;53.646;-113.674;2023-08-24T11:22:32;24.45;;;12.95;;
64686;SDS011;51113;53.646;-113.674;2023-08-24T11:25:01;22.17;;;12.55;;
64686;SDS011;51113;53.646;-113.674;2023-08-24T11:27:30;19.42;;;12.70;;
64686;SDS011;51113;53.646;-113.674;2023-08-24T11:30:01;27.08;;;14.13;;
64686;SDS011;51113;53.646;-113.674;2023-08-24T11:32:33;24.00;;;13.35;;
64686;SDS011;51113;53.646;-113.674;2023-08-24T11:35:01;32.50;;;13.25;;
64686;SDS011;51113;53.646;-113.674;2023-08-24T11:37:30;23.02;;;12.52;;
64686;SDS011;51113;53.646;-113.674;2023-08-24T11:39:59;23.20;;;12.93;;
64686;SDS011;51113;53.646;-113.674;2023-08-24T11:42:35;32.47;;;13.13;;
64686;SDS011;51113;53.646;-113.674;2023-08-24T11:45:04;22.90;;;12.77;;
64686;SDS011;51113;53.646;-113.674;2023-08-24T11:47:40;23.70;;;12.63;;
64686;SDS011;51113;53.646;-113.674;2023-08-24T11:50:10;22.15;;;12.60;;
64686;SDS011;51113;53.646;-113.674;2023-08-24T11:52:41;22.13;;;12.90;;
64686;SDS011;51113;53.646;-113.674;2023-08-24T11:55:10;26.05;;;13.18;;
64686;SDS011;51113;53.646;-113.674;2023-08-24T11:57:41;27.45;;;12.57;;
64686;SDS011;51113;53.646;-113.674;2023-08-24T12:00:10;22.30;;;12.32;;
64686;SDS011;51113;53.646;-113.674;2023-08-24T12:02:41;19.60;;;12.68;;
64686;SDS011;51113;53.646;-113.674;2023-08-24T12:05:22;30.13;;;13.57;;
64686;SDS011;51113;53.646;-113.674;2023-08-24T12:07:52;20.23;;;12.77;;
64686;SDS011;51113;53.646;-113.674;2023-08-24T12:10:22;26.63;;;13.00;;
64686;SDS011;51113;53.646;-113.674;2023-08-24T12:13:00;25.08;;;13.98;;
64686;SDS011;51113;53.646;-113.674;2023-08-24T12:15:35;21.25;;;12.65;;
64686;SDS011;51113;53.646;-113.674;2023-08-24T12:20:40;20.70;;;13.23;;
64686;SDS011;51113;53.646;-113.674;2023-08-24T12:23:10;24.38;;;12.77;;
64686;SDS011;51113;53.646;-113.674;2023-08-24T12:25:43;22.52;;;12.68;;
64686;SDS011;51113;53.646;-113.674;2023-08-24T12:28:13;24.20;;;12.50;;
64686;SDS011;51113;53.646;-113.674;2023-08-24T12:30:52;26.88;;;12.20;;
64686;SDS011;51113;53.646;-113.674;2023-08-24T12:33:24;23.75;;;12.57;;
64686;SDS011;51113;53.646;-113.674;2023-08-24T12:35:55;23.02;;;11.85;;
64686;SDS011;51113;53.646;-113.674;2023-08-24T12:38:24;23.42;;;12.35;;
64686;SDS011;51113;53.646;-113.674;2023-08-24T12:40:54;27.70;;;12.65;;
64686;SDS011;51113;53.646;-113.674;2023-08-24T12:43:22;25.92;;;12.93;;
64686;SDS011;51113;53.646;-113.674;2023-08-24T12:45:51;24.45;;;12.73;;
64686;SDS011;51113;53.646;-113.674;2023-08-24T12:48:20;22.90;;;12.63;;
64686;SDS011;51113;53.646;-113.674;2023-08-24T12:50:49;27.27;;;12.85;;
64686;SDS011;51113;53.646;-113.674;2023-08-24T12:53:17;28.30;;;12.88;;
64686;SDS011;51113;53.646;-113.674;2023-08-24T12:55:45;24.67;;;12.82;;
64686;SDS011;51113;53.646;-113.674;2023-08-24T12:58:14;23.67;;;13.68;;
64686;SDS011;51113;53.646;-113.674;2023-08-24T13:00:42;22.38;;;13.35;;
64686;SDS011;51113;53.646;-113.674;2023-08-24T13:03:11;22.13;;;12.23;;
64686;SDS011;51113;53.646;-113.674;2023-08-24T13:05:40;29.15;;;13.40;;
64686;SDS011;51113;53.646;-113.674;2023-08-24T13:08:08;23.80;;;13.48;;
64686;SDS011;51113;53.646;-113.674;2023-08-24T13:10:38;24.48;;;13.93;;
64686;SDS011;51113;53.646;-113.674;2023-08-24T13:13:06;22.15;;;13.90;;
64686;SDS011;51113;53.646;-113.674;2023-08-24T13:15:35;25.15;;;13.55;;
64686;SDS011;51113;53.646;-113.674;2023-08-24T13:18:03;26.40;;;13.15;;
64686;SDS011;51113;53.646;-113.674;2023-08-24T13:20:32;25.58;;;14.00;;
64686;SDS011;51113;53.646;-113.674;2023-08-24T13:23:00;31.85;;;14.07;;
64686;SDS011;51113;53.646;-113.674;2023-08-24T13:25:29;27.20;;;13.60;;
64686;SDS011;51113;53.646;-113.674;2023-08-24T13:27:58;23.98;;;12.75;;
64686;SDS011;51113;53.646;-113.674;2023-08-24T13:30:27;25.40;;;13.85;;
64686;SDS011;51113;53.646;-113.674;2023-08-24T13:32:55;25.63;;;11.98;;
64686;SDS011;51113;53.646;-113.674;2023-08-24T13:35:24;32.08;;;12.20;;
64686;SDS011;51113;53.646;-113.674;2023-08-24T13:37:52;27.83;;;12.90;;
64686;SDS011;51113;53.646;-113.674;2023-08-24T13:40:21;24.70;;;12.45;;
64686;SDS011;51113;53.646;-113.674;2023-08-24T13:42:49;23.88;;;12.15;;
64686;SDS011;51113;53.646;-113.674;2023-08-24T13:45:18;23.33;;;11.23;;
64686;SDS011;51113;53.646;-113.674;2023-08-24T13:47:47;26.13;;;11.88;;
64686;SDS011;51113;53.646;-113.674;2023-08-24T13:50:16;26.85;;;11.00;;
64686;SDS011;51113;53.646;-113.674;2023-08-24T13:52:44;20.70;;;10.25;;
64686;SDS011;51113;53.646;-113.674;2023-08-24T13:55:13;27.98;;;9.75;;
64686;SDS011;51113;53.646;-113.674;2023-08-24T13:57:42;18.38;;;9.07;;
64686;SDS011;51113;53.646;-113.674;2023-08-24T14:00:11;15.95;;;8.18;;
64686;SDS011;51113;53.646;-113.674;2023-08-24T14:02:40;14.30;;;7.80;;
64686;SDS011;51113;53.646;-113.674;2023-08-24T14:05:08;17.45;;;7.00;;
64686;SDS011;51113;53.646;-113.674;2023-08-24T14:07:37;24.42;;;7.82;;
64686;SDS011;51113;53.646;-113.674;2023-08-24T14:10:06;15.82;;;6.88;;
64686;SDS011;51113;53.646;-113.674;2023-08-24T14:12:38;13.82;;;5.90;;
64686;SDS011;51113;53.646;-113.674;2023-08-24T14:15:06;12.05;;;5.50;;
64686;SDS011;51113;53.646;-113.674;2023-08-24T14:17:35;11.70;;;5.13;;
64686;SDS011;51113;53.646;-113.674;2023-08-24T14:20:05;10.40;;;4.80;;
64686;SDS011;51113;53.646;-113.674;2023-08-24T14:22:34;12.73;;;4.70;;
64686;SDS011;51113;53.646;-113.674;2023-08-24T14:25:02;8.13;;;4.70;;
64686;SDS011;51113;53.646;-113.674;2023-08-24T14:27:31;9.88;;;4.45;;